createdAt,value
2024-05-09T00:02:25.146Z,99828.22
2024-05-09T00:04:55.619Z,99834.34
2024-05-09T00:07:25.992Z,99837.66
2024-05-09T00:09:56.289Z,99839.91
2024-05-09T00:12:29.182Z,99837.69
2024-05-09T00:14:59.440Z,99848.22
2024-05-09T00:17:29.787Z,99841.31
2024-05-09T00:20:00.274Z,99839.16
2024-05-09T00:22:30.512Z,99830.00
2024-05-09T00:25:00.759Z,99823.94
2024-05-09T00:27:33.521Z,99825.88
2024-05-09T00:30:04.286Z,99826.97
2024-05-09T00:32:34.701Z,99826.16
2024-05-09T00:35:05.113Z,99822.03
2024-05-09T00:37:35.331Z,99821.19
2024-05-09T00:40:07.400Z,99822.28
2024-05-09T00:42:43.387Z,99823.69
2024-05-09T00:45:13.618Z,99819.28
2024-05-09T00:47:45.992Z,99818.75
2024-05-09T00:50:22.733Z,99812.38
2024-05-09T00:53:00.016Z,99812.66
2024-05-09T00:55:30.586Z,99812.91
2024-05-09T00:58:03.960Z,99817.63
2024-05-09T01:00:39.266Z,99802.97
2024-05-09T01:03:13.370Z,99825.13
2024-05-09T01:05:45.261Z,99812.38
2024-05-09T01:08:16.623Z,99811.84
2024-05-09T01:10:48.766Z,99816.53
2024-05-09T01:13:22.469Z,99806.88
2024-05-09T01:15:54.101Z,99809.63
2024-05-09T01:18:24.452Z,99801.63
2024-05-09T01:20:54.871Z,99811.31
2024-05-09T01:23:27.836Z,99809.94
2024-05-09T01:25:58.154Z,99817.41
2024-05-09T01:28:28.487Z,99805.81
2024-05-09T01:30:58.800Z,99810.81
2024-05-09T01:33:29.226Z,99809.16
2024-05-09T01:35:59.855Z,99804.72
2024-05-09T01:38:32.911Z,99799.50
2024-05-09T01:41:03.379Z,99806.97
2024-05-09T01:43:33.603Z,99808.88
2024-05-09T01:46:03.867Z,99812.75
2024-05-09T01:48:34.141Z,99816.66
2024-05-09T01:51:04.683Z,99813.03
2024-05-09T01:53:37.714Z,99808.91
2024-05-09T01:56:08.803Z,99806.97
2024-05-09T01:58:39.045Z,99814.44
2024-05-09T02:01:09.307Z,99810.03
2024-05-09T02:03:39.753Z,99810.28
2024-05-09T02:06:10.280Z,99803.13
2024-05-09T02:08:43.507Z,99818.88
2024-05-09T02:11:13.835Z,99797.84
2024-05-09T02:13:44.781Z,99807.28
2024-05-09T02:16:16.778Z,99805.59
2024-05-09T02:18:47.177Z,99802.84
2024-05-09T02:21:17.455Z,99810.34
2024-05-09T02:23:50.255Z,99810.59
2024-05-09T02:26:20.516Z,99808.66
2024-05-09T02:28:50.776Z,99808.13
2024-05-09T02:31:22.504Z,99816.44
2024-05-09T02:33:53.159Z,99810.34
2024-05-09T02:36:23.759Z,99814.50
2024-05-09T02:38:54.045Z,99820.31
2024-05-09T02:41:24.929Z,99817.78
2024-05-09T02:43:53.136Z,99822.50
2024-05-09T02:46:23.875Z,99807.03
2024-05-09T02:48:53.578Z,99814.78
2024-05-09T02:51:24.070Z,99820.31
2024-05-09T02:54:01.890Z,99820.88
2024-05-09T02:56:32.158Z,99815.03
2024-05-09T02:58:59.864Z,99820.88
2024-05-09T03:01:30.367Z,99818.94
2024-05-09T03:03:58.168Z,99832.47
2024-05-09T03:06:28.459Z,99832.47
2024-05-09T03:08:56.024Z,99838.00
2024-05-09T03:11:29.335Z,99831.63
2024-05-09T03:13:56.987Z,99841.06
2024-05-09T03:16:27.253Z,99843.81
2024-05-09T03:18:55.210Z,99846.84
2024-05-09T03:21:25.546Z,99847.97
2024-05-09T03:23:53.168Z,99854.59
2024-05-09T03:26:23.488Z,99855.72
2024-05-09T03:28:53.736Z,99857.94
2024-05-09T03:31:24.041Z,99849.06
2024-05-09T03:33:51.804Z,99858.50
2024-05-09T03:36:22.100Z,99857.66
2024-05-09T03:38:52.396Z,99861.25
2024-05-09T03:41:22.921Z,99862.91
2024-05-09T03:43:55.924Z,99857.38
2024-05-09T03:46:23.556Z,99854.06
2024-05-09T03:48:53.907Z,99854.06
2024-05-09T03:51:22.831Z,99858.19
2024-05-09T03:53:53.027Z,99859.59
2024-05-09T03:56:20.645Z,99865.38
2024-05-09T03:58:50.881Z,99861.22
2024-05-09T04:01:21.324Z,99858.19
2024-05-09T04:03:51.772Z,99859.59
2024-05-09T04:06:24.228Z,99869.53
2024-05-09T04:08:54.685Z,99865.38
2024-05-09T04:11:22.419Z,99867.59
2024-05-09T04:13:52.711Z,99873.66
2024-05-09T04:16:23.404Z,99870.59
2024-05-09T04:18:53.756Z,99861.22
2024-05-09T04:21:21.363Z,99867.28
2024-05-09T04:23:51.557Z,99865.91
2024-05-09T04:26:19.295Z,99868.38
2024-05-09T04:28:49.692Z,99864.50
2024-05-09T04:31:17.332Z,99867.81
2024-05-09T04:33:50.242Z,99875.00
2024-05-09T04:36:17.928Z,99862.00
2024-05-09T04:38:48.205Z,99870.03
2024-05-09T04:41:15.854Z,99866.97
2024-05-09T04:43:46.114Z,99863.91
2024-05-09T04:46:14.944Z,99876.06
2024-05-09T04:48:45.218Z,99876.34
2024-05-09T04:51:15.472Z,99879.66
2024-05-09T04:53:45.785Z,99872.63
2024-05-09T04:56:13.516Z,99873.13
2024-05-09T04:58:44.103Z,99869.72
2024-05-09T05:01:11.831Z,99876.00
2024-05-09T05:03:42.349Z,99870.63
2024-05-09T05:06:10.289Z,99872.44
2024-05-09T05:08:43.188Z,99878.38
2024-05-09T05:11:12.640Z,99889.94
2024-05-09T05:13:43.237Z,99890.22
2024-05-09T05:16:10.776Z,99892.41
2024-05-09T05:18:41.142Z,99887.94
2024-05-09T05:21:08.887Z,99893.13
2024-05-09T05:23:40.857Z,99894.72
2024-05-09T05:26:11.250Z,99894.16
2024-05-09T05:28:41.512Z,99899.94
2024-05-09T05:31:09.076Z,99900.75
2024-05-09T05:33:39.438Z,99906.25
2024-05-09T05:36:08.083Z,99913.13
2024-05-09T05:38:38.370Z,99909.47
2024-05-09T05:41:06.077Z,99906.88
2024-05-09T05:43:38.957Z,99907.03
2024-05-09T05:46:06.559Z,99907.75
2024-05-09T05:48:36.816Z,99911.81
2024-05-09T05:51:06.331Z,99914.22
2024-05-09T05:53:36.749Z,99906.47
2024-05-09T05:56:05.984Z,99910.56
2024-05-09T05:58:38.842Z,99912.53
2024-05-09T06:01:06.469Z,99903.31
2024-05-09T06:03:36.867Z,99912.63
2024-05-09T06:06:05.145Z,99914.75
2024-05-09T06:08:35.562Z,99911.50
2024-05-09T06:11:04.126Z,99906.53
2024-05-09T06:13:34.443Z,99916.91
2024-05-09T06:16:05.658Z,99919.84
2024-05-09T06:18:36.297Z,99918.22
2024-05-09T06:21:04.145Z,99930.88
2024-05-09T06:23:34.577Z,99933.50
2024-05-09T06:26:02.320Z,99923.84
2024-05-09T06:28:32.536Z,99927.28
2024-05-09T06:31:05.156Z,99932.66
2024-05-09T06:33:35.777Z,99931.38
2024-05-09T06:36:03.957Z,99922.53
2024-05-09T06:38:34.571Z,99932.84
2024-05-09T06:41:02.264Z,99928.66
2024-05-09T06:43:32.524Z,99924.41
2024-05-09T06:46:00.077Z,99914.59
2024-05-09T06:48:33.389Z,99919.75
2024-05-09T06:51:01.289Z,99930.78
2024-05-09T06:53:31.700Z,99927.69
2024-05-09T06:55:59.456Z,99931.91
2024-05-09T06:58:29.728Z,99942.66
2024-05-09T07:00:57.327Z,99935.56
2024-05-09T07:03:27.969Z,99922.88
2024-05-09T07:05:58.324Z,99928.66
2024-05-09T07:08:28.605Z,99924.19
2024-05-09T07:10:56.259Z,99931.44
2024-05-09T07:13:26.551Z,99936.69
2024-05-09T07:15:54.136Z,99929.66
2024-05-09T07:18:24.538Z,99926.59
2024-05-09T07:20:52.250Z,99946.63
2024-05-09T07:23:25.188Z,99929.25
2024-05-09T07:25:52.793Z,99936.56
2024-05-09T07:28:24.857Z,99934.41
2024-05-09T07:30:55.137Z,99925.69
2024-05-09T07:33:24.350Z,99931.88
2024-05-09T07:35:54.988Z,99938.59
2024-05-09T07:38:25.500Z,99931.31
2024-05-09T07:40:55.816Z,99932.22
2024-05-09T07:43:23.435Z,99924.53
2024-05-09T07:45:55.376Z,99930.31
2024-05-09T07:53:00.892Z,99931.19
2024-05-09T07:53:52.396Z,99936.97
2024-05-09T07:56:26.121Z,99931.13
2024-05-09T07:58:54.522Z,99929.53
2024-05-09T08:01:26.636Z,99936.53
2024-05-09T08:03:54.860Z,99932.13
2024-05-09T08:06:26.453Z,99925.28
2024-05-09T08:08:57.879Z,99927.94
2024-05-09T08:11:29.339Z,99931.91
2024-05-09T08:13:57.075Z,99939.00
2024-05-09T08:16:27.517Z,99931.97
2024-05-09T08:18:55.422Z,99934.91
2024-05-09T08:21:26.737Z,99932.31
2024-05-09T08:23:57.018Z,99932.81
2024-05-09T08:26:27.249Z,99925.94
2024-05-09T08:28:54.884Z,99921.34
2024-05-09T08:31:25.218Z,99916.78
2024-05-09T08:33:53.166Z,99934.19
2024-05-09T08:36:23.587Z,99928.63
2024-05-09T08:38:51.206Z,99931.00
2024-05-09T08:41:24.086Z,99930.53
2024-05-09T08:43:51.827Z,99918.22
2024-05-09T08:46:22.192Z,99905.72
2024-05-09T08:48:52.388Z,99906.69
2024-05-09T08:51:23.142Z,99906.03
2024-05-09T08:53:50.752Z,99914.94
2024-05-09T08:56:28.951Z,99921.84
2024-05-09T08:59:01.147Z,99921.19
2024-05-09T09:01:34.226Z,99924.00
2024-05-09T09:04:04.368Z,99914.28
2024-05-09T09:06:37.510Z,99914.44
2024-05-09T09:09:05.640Z,99903.91
2024-05-09T09:11:38.503Z,99918.56
2024-05-09T09:14:06.085Z,99920.06
2024-05-09T09:16:37.087Z,99916.09
2024-05-09T09:19:05.394Z,99917.41
2024-05-09T09:21:35.802Z,99913.78
2024-05-09T09:24:03.750Z,99910.19
2024-05-09T09:26:34.325Z,99916.91
2024-05-09T09:29:04.587Z,99921.19
2024-05-09T09:31:34.861Z,99910.84
2024-05-09T09:34:08.619Z,99906.56
2024-05-09T09:36:41.943Z,99898.50
2024-05-09T09:39:10.857Z,99906.28
2024-05-09T09:41:42.707Z,99907.25
2024-05-09T09:44:13.100Z,99900.97
2024-05-09T09:46:44.380Z,99896.88
2024-05-09T09:49:12.392Z,99902.28
2024-05-09T09:51:44.211Z,99902.44
2024-05-09T09:54:13.271Z,99897.34
2024-05-09T09:56:44.384Z,99902.28
2024-05-09T09:59:15.804Z,99905.41
2024-05-09T10:01:48.248Z,99900.31
2024-05-09T10:04:19.005Z,99904.25
2024-05-09T10:06:53.537Z,99909.38
2024-05-09T10:09:22.759Z,99899.31
2024-05-09T10:11:59.992Z,99889.63
2024-05-09T10:14:33.583Z,99900.47
2024-05-09T10:17:08.382Z,99889.63
2024-05-09T10:19:36.078Z,99895.69
2024-05-09T10:22:08.987Z,99893.03
2024-05-09T10:24:48.174Z,99902.09
2024-05-09T10:27:19.938Z,99891.41
2024-05-09T10:29:57.840Z,99873.78
2024-05-09T10:32:30.045Z,99875.72
2024-05-09T10:35:01.286Z,99872.28
2024-05-09T10:37:31.853Z,99880.16
2024-05-09T10:40:00.247Z,99876.50
2024-05-09T10:42:30.970Z,99870.00
2024-05-09T10:45:03.223Z,99866.19
2024-05-09T10:47:33.766Z,99856.22
2024-05-09T10:50:01.753Z,99854.34
2024-05-09T10:52:32.015Z,99853.69
2024-05-09T10:55:00.967Z,99860.44
2024-05-09T10:57:41.999Z,99860.13
2024-05-09T11:00:19.448Z,99837.66
2024-05-09T11:02:58.347Z,99843.38
2024-05-09T11:05:26.414Z,99845.97
2024-05-09T11:07:56.838Z,99841.03
2024-05-09T11:10:33.340Z,99856.28
2024-05-09T11:13:04.601Z,99842.41
2024-05-09T11:15:41.868Z,99822.91
2024-05-09T11:18:25.619Z,99821.69
2024-05-09T11:20:55.897Z,99824.97
2024-05-09T11:23:27.550Z,99819.19
2024-05-09T11:25:56.842Z,99825.88
2024-05-09T11:28:29.114Z,99819.53
2024-05-09T11:31:09.849Z,99817.50
2024-05-09T11:33:41.822Z,99824.31
2024-05-09T11:36:10.531Z,99829.53
2024-05-09T11:38:40.853Z,99817.59
2024-05-09T11:41:08.582Z,99811.25
2024-05-09T11:43:38.786Z,99802.91
2024-05-09T11:46:09.199Z,99823.78
2024-05-09T11:48:39.810Z,99812.94
2024-05-09T11:51:07.671Z,99824.84
2024-05-09T11:53:37.896Z,99811.16
2024-05-09T11:56:06.143Z,99810.84
2024-05-09T11:58:38.362Z,99806.78
2024-05-09T12:01:08.834Z,99806.81
2024-05-09T12:03:39.575Z,99797.84
2024-05-09T12:06:07.440Z,99794.94
2024-05-09T12:08:37.800Z,99791.25
2024-05-09T12:11:05.905Z,99794.84
2024-05-09T12:13:36.397Z,99791.94
2024-05-09T12:16:04.273Z,99795.56
2024-05-09T12:18:37.298Z,99790.56
2024-05-09T12:21:06.070Z,99789.22
2024-05-09T12:23:36.277Z,99800.38
2024-05-09T12:26:04.232Z,99794.31
2024-05-09T12:28:34.489Z,99778.91
2024-05-09T12:31:02.187Z,99783.41
2024-05-09T12:33:32.513Z,99790.00
2024-05-09T12:36:03.160Z,99796.47
2024-05-09T12:38:33.407Z,99774.66
2024-05-09T12:41:01.178Z,99775.56
2024-05-09T12:43:31.497Z,99781.25
2024-05-09T12:45:59.212Z,99784.53
2024-05-09T12:48:29.758Z,99774.00
2024-05-09T12:50:57.863Z,99776.50
2024-05-09T12:53:30.856Z,99770.16
2024-05-09T12:56:02.239Z,99774.13
2024-05-09T12:58:34.376Z,99769.34
2024-05-09T13:01:02.118Z,99770.25
2024-05-09T13:03:32.668Z,99753.69
2024-05-09T13:06:00.486Z,99746.38
2024-05-09T13:08:33.396Z,99751.16
2024-05-09T13:11:01.231Z,99748.59
2024-05-09T13:13:31.847Z,99739.69
2024-05-09T13:15:59.687Z,99743.75
2024-05-09T13:18:30.218Z,99742.78
2024-05-09T13:20:57.948Z,99741.94
2024-05-09T13:23:28.213Z,99748.44
2024-05-09T13:25:58.536Z,99740.44
2024-05-09T13:28:31.945Z,99735.13
2024-05-09T13:30:59.680Z,99741.03
2024-05-09T13:33:30.020Z,99738.63
2024-05-09T13:35:58.001Z,99739.63
2024-05-09T13:38:28.294Z,99732.41
2024-05-09T13:40:58.603Z,99728.78
2024-05-09T13:43:29.241Z,99742.38
2024-05-09T13:45:57.590Z,99727.91
2024-05-09T13:48:28.304Z,99736.41
2024-05-09T13:50:57.019Z,99732.75
2024-05-09T13:53:27.892Z,99734.22
2024-05-09T13:55:58.113Z,99724.31
2024-05-09T13:58:28.768Z,99728.94
2024-05-09T14:00:56.569Z,99718.56
2024-05-09T14:03:29.934Z,99716.69
2024-05-09T14:05:58.104Z,99706.22
2024-05-09T14:08:28.692Z,99706.31
2024-05-09T14:10:59.128Z,99696.53
2024-05-09T14:13:29.410Z,99711.56
2024-05-09T14:15:57.164Z,99704.75
2024-05-09T14:18:27.631Z,99704.38
2024-05-09T14:20:55.300Z,99706.53
2024-05-09T14:23:26.194Z,99693.94
2024-05-09T14:25:53.828Z,99697.72
2024-05-09T14:28:28.117Z,99691.38
2024-05-09T14:30:56.952Z,99693.53
2024-05-09T14:33:27.943Z,99699.78
2024-05-09T14:35:55.765Z,99687.59
2024-05-09T14:38:26.575Z,99683.88
2024-05-09T14:40:54.913Z,99694.00
2024-05-09T14:43:28.107Z,99681.66
2024-05-09T14:45:56.111Z,99684.06
2024-05-09T14:48:27.218Z,99691.06
2024-05-09T14:50:54.928Z,99689.88
2024-05-09T14:53:26.639Z,99688.34
2024-05-09T14:55:54.580Z,99673.91
2024-05-09T14:58:27.587Z,99685.69
2024-05-09T15:00:55.378Z,99679.66
2024-05-09T15:03:25.768Z,99680.94
2024-05-09T15:05:53.614Z,99677.69
2024-05-09T15:08:24.104Z,99677.22
2024-05-09T15:10:52.137Z,99675.94
2024-05-09T15:13:23.784Z,99675.59
2024-05-09T15:15:54.797Z,99673.66
2024-05-09T15:18:25.278Z,99668.47
2024-05-09T15:20:52.953Z,99658.97
2024-05-09T15:23:23.495Z,99664.75
2024-05-09T15:25:51.093Z,99659.09
2024-05-09T15:28:21.634Z,99661.06
2024-05-09T15:30:49.393Z,99656.88
2024-05-09T15:33:22.416Z,99653.38
2024-05-09T15:35:51.738Z,99654.31
2024-05-09T15:38:22.330Z,99664.31
2024-05-09T15:40:50.095Z,99670.31
2024-05-09T15:43:20.451Z,99654.56
2024-05-09T15:45:48.122Z,99658.75
2024-05-09T15:48:21.133Z,99657.72
2024-05-09T15:50:48.807Z,99674.75
2024-05-09T15:53:19.096Z,99670.91
2024-05-09T15:55:46.793Z,99673.91
2024-05-09T15:58:17.930Z,99666.75
2024-05-09T16:00:47.867Z,99665.31
2024-05-09T16:03:23.427Z,99670.22
2024-05-09T16:05:51.995Z,99662.28
2024-05-09T16:08:22.422Z,99667.63
2024-05-09T16:10:50.261Z,99671.06
2024-05-09T16:13:20.881Z,99664.75
2024-05-09T16:15:51.754Z,99671.84
2024-05-09T16:18:22.139Z,99673.66
2024-05-09T16:20:59.519Z,99669.94
2024-05-09T16:23:27.213Z,99670.66
2024-05-09T16:25:58.000Z,99675.44
2024-05-09T16:28:27.031Z,99678.56
2024-05-09T16:30:58.316Z,99677.84
2024-05-09T16:33:28.763Z,99675.06
2024-05-09T16:36:00.138Z,99673.97
2024-05-09T16:38:27.752Z,99682.84
2024-05-09T16:40:58.046Z,99667.31
2024-05-09T16:43:25.809Z,99671.78
2024-05-09T16:45:56.330Z,99670.28
2024-05-09T16:48:24.080Z,99677.59
2024-05-09T16:50:56.981Z,99671.28
2024-05-09T16:53:25.849Z,99671.38
2024-05-09T16:55:56.223Z,99671.50
2024-05-09T16:58:24.735Z,99670.47
2024-05-09T17:00:55.164Z,99664.97
2024-05-09T17:03:23.764Z,99674.31
2024-05-09T17:05:56.913Z,99667.63
2024-05-09T17:08:24.596Z,99672.22
2024-05-09T17:10:55.647Z,99677.59
2024-05-09T17:13:26.203Z,99668.06
2024-05-09T17:15:56.642Z,99669.81
2024-05-09T17:18:27.389Z,99674.00
2024-05-09T17:20:57.787Z,99671.31
2024-05-09T17:25:55.769Z,99671.59
2024-05-09T17:28:26.258Z,99672.16
2024-05-09T17:30:54.043Z,99674.41
2024-05-09T17:33:24.528Z,99669.81
2024-05-09T17:35:58.068Z,99677.63
2024-05-09T17:38:28.357Z,99675.50
2024-05-09T17:40:56.260Z,99669.75
2024-05-09T17:43:26.837Z,99676.84
2024-05-09T17:45:54.736Z,99677.88
2024-05-09T17:48:25.433Z,99676.94
2024-05-09T17:50:53.045Z,99676.31
2024-05-09T17:53:25.920Z,99678.03
2024-05-09T17:55:55.862Z,99684.19
2024-05-09T17:58:26.275Z,99673.06
2024-05-09T18:00:54.005Z,99681.19
2024-05-09T18:03:25.804Z,99684.06
2024-05-09T18:05:53.703Z,99688.06
2024-05-09T18:08:26.740Z,99687.28
2024-05-09T18:10:55.523Z,99681.41
2024-05-09T18:13:26.380Z,99677.81
2024-05-09T18:15:54.120Z,99681.81
2024-05-09T18:18:24.888Z,99687.97
2024-05-09T18:20:52.762Z,99691.97
2024-05-09T18:23:25.962Z,99691.53
2024-05-09T18:25:55.212Z,99688.41
2024-05-09T18:28:25.998Z,99692.03
2024-05-09T18:30:53.675Z,99688.44
2024-05-09T18:33:24.633Z,99696.88
2024-05-09T18:35:53.238Z,99699.34
2024-05-09T18:38:27.363Z,99696.59
2024-05-09T18:40:56.028Z,99707.75
2024-05-09T18:43:31.659Z,99710.56
2024-05-09T18:46:06.674Z,99705.84
2024-05-09T18:48:38.153Z,99714.69
2024-05-09T18:51:06.651Z,99721.09
2024-05-09T18:53:42.261Z,99722.72
2024-05-09T18:56:13.007Z,99726.03
2024-05-09T18:58:47.180Z,99729.31
2024-05-09T19:01:16.204Z,99723.38
2024-05-09T19:03:51.319Z,99733.88
2024-05-09T19:06:23.896Z,99730.75
2024-05-09T19:09:00.416Z,99729.59
2024-05-09T19:11:29.398Z,99730.09
2024-05-09T19:14:04.534Z,99734.16
2024-05-09T19:16:33.016Z,99734.31
2024-05-09T19:19:05.083Z,99740.34
2024-05-09T19:21:33.749Z,99748.84
2024-05-09T19:24:08.064Z,99755.75
2024-05-09T19:26:39.012Z,99754.75
2024-05-09T19:29:10.794Z,99752.09
2024-05-09T19:31:41.760Z,99760.59
2024-05-09T19:34:13.341Z,99761.22
2024-05-09T19:36:42.887Z,99761.06
2024-05-09T19:39:17.547Z,99762.03
2024-05-09T19:41:46.244Z,99767.41
2024-05-09T19:44:18.197Z,99766.13
2024-05-09T19:46:47.856Z,99775.94
2024-05-09T19:49:19.339Z,99777.41
2024-05-09T19:51:47.668Z,99774.13
2024-05-09T19:54:21.080Z,99781.97
2024-05-09T19:56:48.985Z,99785.06
2024-05-09T19:59:20.398Z,99790.16
2024-05-09T20:01:50.979Z,99789.97
2024-05-09T20:04:19.439Z,99783.88
2024-05-09T20:06:51.224Z,99776.47
2024-05-09T20:09:22.030Z,99783.00
2024-05-09T20:11:53.448Z,99779.66
2024-05-09T20:14:22.950Z,99783.91
2024-05-09T20:16:54.556Z,99782.09
2024-05-09T20:19:24.095Z,99787.47
2024-05-09T20:21:56.717Z,99800.41
2024-05-09T20:24:27.643Z,99791.84
2024-05-09T20:26:59.432Z,99791.34
2024-05-09T20:29:27.916Z,99784.75
2024-05-09T20:31:59.962Z,99795.69
2024-05-09T20:34:30.371Z,99810.28
2024-05-09T20:37:01.609Z,99801.72
2024-05-09T20:39:33.307Z,99806.28
2024-05-09T20:42:06.826Z,99802.16
2024-05-09T20:44:35.018Z,99807.22
2024-05-09T20:47:05.741Z,99808.69
2024-05-09T20:49:33.834Z,99814.59
2024-05-09T20:52:04.162Z,99802.09
2024-05-09T20:54:34.490Z,99804.66
2024-05-09T20:57:04.906Z,99802.22
2024-05-09T20:59:32.477Z,99804.78
2024-05-09T21:02:02.842Z,99804.28
2024-05-09T21:04:30.902Z,99812.44
2024-05-09T21:07:01.275Z,99811.94
2024-05-09T21:09:28.897Z,99820.09
2024-05-09T21:12:01.940Z,99822.69
2024-05-09T21:14:29.603Z,99810.19
2024-05-09T21:17:00.051Z,99809.44
2024-05-09T21:19:27.871Z,99810.09
2024-05-09T21:21:58.201Z,99818.22
2024-05-09T21:24:25.860Z,99815.25
2024-05-09T21:26:56.696Z,99815.03
2024-05-09T21:29:26.989Z,99815.13
2024-05-09T21:31:57.201Z,99827.72
2024-05-09T21:34:25.199Z,99828.66
2024-05-09T21:36:55.530Z,99824.84
2024-05-09T21:39:24.830Z,99822.97
2024-05-09T21:41:55.072Z,99823.91
2024-05-09T21:44:25.349Z,99828.47
2024-05-09T21:46:55.640Z,99834.63
2024-05-09T21:49:23.407Z,99827.72
2024-05-09T21:51:53.775Z,99833.59
2024-05-09T21:54:21.572Z,99838.66
2024-05-09T21:56:51.825Z,99831.22
2024-05-09T21:59:19.434Z,99836.28
2024-05-09T22:01:52.376Z,99838.31
2024-05-09T22:04:20.147Z,99827.50
2024-05-09T22:06:50.496Z,99832.84
2024-05-09T22:09:18.124Z,99841.00
2024-05-09T22:11:51.357Z,99848.28
2024-05-09T22:14:21.321Z,99843.63
2024-05-09T22:16:54.217Z,99847.31
2024-05-09T22:19:21.879Z,99849.88
2024-05-09T22:21:52.235Z,99846.06
2024-05-09T22:24:19.889Z,99855.34
2024-05-09T22:26:52.192Z,99855.94
2024-05-09T22:29:19.794Z,99854.56
2024-05-09T22:31:49.989Z,99849.94
2024-05-09T22:34:20.508Z,99856.41
2024-05-09T22:36:50.974Z,99858.34
2024-05-09T22:39:18.638Z,99864.81
2024-05-09T22:41:48.931Z,99857.09
2024-05-09T22:44:16.593Z,99863.25
2024-05-09T22:46:46.778Z,99863.84
2024-05-09T22:49:14.572Z,99862.28
2024-05-09T22:51:47.539Z,99856.81
2024-05-09T22:54:15.226Z,99857.41
2024-05-09T22:56:45.553Z,99859.97
2024-05-09T22:59:13.370Z,99849.75
2024-05-09T23:01:43.708Z,99848.72
2024-05-09T23:04:11.498Z,99859.59
2024-05-09T23:06:46.394Z,99855.25
2024-05-09T23:09:14.014Z,99851.13
2024-05-09T23:11:45.876Z,99853.09
2024-05-09T23:14:13.541Z,99855.66
2024-05-09T23:16:44.041Z,99849.84
2024-05-09T23:19:11.729Z,99851.59
2024-05-09T23:21:42.797Z,99849.41
2024-05-09T23:24:13.144Z,99847.53
2024-05-09T23:26:45.834Z,99848.66
2024-05-09T23:29:13.470Z,99843.69
2024-05-09T23:31:44.284Z,99845.94
2024-05-09T23:34:12.117Z,99843.75
2024-05-09T23:36:42.485Z,99843.53
2024-05-09T23:39:12.871Z,99841.66
2024-05-09T23:41:43.082Z,99844.72
2024-05-09T23:44:10.687Z,99837.00
2024-05-09T23:46:41.079Z,99833.69
2024-05-09T23:49:09.160Z,99834.28
2024-05-09T23:51:39.507Z,99844.84
2024-05-09T23:54:08.685Z,99843.50
2024-05-09T23:56:41.542Z,99837.16
2024-05-09T23:59:09.170Z,99839.94
